createdAt,value
2022-12-23T00:01:39.140Z,6.63
2022-12-23T00:04:07.961Z,6.61
2022-12-23T00:06:34.508Z,6.59
2022-12-23T00:09:02.721Z,6.61
2022-12-23T00:11:29.198Z,6.62
2022-12-23T00:14:20.969Z,6.65
2022-12-23T00:16:49.872Z,6.67
2022-12-23T00:19:16.233Z,6.69
2022-12-23T00:21:42.721Z,6.69
2022-12-23T00:24:11.003Z,6.67
2022-12-23T00:26:39.122Z,6.64
2022-12-23T00:29:05.737Z,6.59
2022-12-23T00:31:32.637Z,6.54
2022-12-23T00:34:00.651Z,6.49
2022-12-23T00:36:28.645Z,6.44
2022-12-23T00:39:26.445Z,6.41
2022-12-23T00:42:12.857Z,6.40
2022-12-23T00:44:40.581Z,6.38
2022-12-23T00:47:28.747Z,6.39
2022-12-23T00:49:55.680Z,6.40
2022-12-23T00:52:22.737Z,6.40
2022-12-23T00:54:49.817Z,6.40
2022-12-23T00:57:16.640Z,6.41
2022-12-23T00:59:43.304Z,6.42
2022-12-23T01:02:30.726Z,6.44
2022-12-23T01:05:17.474Z,6.49
2022-12-23T01:07:44.407Z,6.51
2022-12-23T01:10:12.519Z,6.52
2022-12-23T01:12:40.384Z,6.53
2022-12-23T01:15:08.716Z,6.55
2022-12-23T01:17:37.290Z,6.57
2022-12-23T01:20:04.597Z,6.58
2022-12-23T01:22:31.135Z,6.60
2022-12-23T01:24:58.105Z,6.62
2022-12-23T01:27:26.974Z,6.64
2022-12-23T01:29:55.869Z,6.67
2022-12-23T01:32:26.083Z,6.66
2022-12-23T01:34:57.610Z,6.64
2022-12-23T01:37:26.588Z,6.62
2022-12-23T01:39:53.925Z,6.57
2022-12-23T01:42:40.549Z,6.52
2022-12-23T01:45:19.170Z,6.44
2022-12-23T01:47:54.308Z,6.38
2022-12-23T01:50:36.406Z,6.32
2022-12-23T01:53:11.062Z,6.24
2022-12-23T01:55:45.705Z,6.15
2022-12-23T01:58:26.631Z,6.09
2022-12-23T02:01:15.469Z,6.02
2022-12-23T02:03:46.115Z,5.95
2022-12-23T02:06:39.184Z,5.89
2022-12-23T02:09:19.737Z,5.82
2022-12-23T02:12:17.753Z,5.75
2022-12-23T02:15:35.218Z,5.70
2022-12-23T02:18:48.607Z,5.64
2022-12-23T02:21:31.416Z,5.56
2022-12-23T02:24:11.789Z,5.50
2022-12-23T02:27:15.790Z,5.45
2022-12-23T02:29:52.960Z,5.40
2022-12-23T02:32:24.646Z,5.34
2022-12-23T02:35:08.675Z,5.29
2022-12-23T02:37:45.840Z,5.25
2022-12-23T02:40:24.363Z,5.21
2022-12-23T02:43:22.100Z,5.17
2022-12-23T02:46:06.928Z,5.11
2022-12-23T02:49:06.685Z,5.05
2022-12-23T02:51:40.870Z,4.99
2022-12-23T02:54:18.248Z,4.95
2022-12-23T02:56:49.948Z,4.91
2022-12-23T02:59:22.650Z,4.89
2022-12-23T03:01:55.796Z,4.87
2022-12-23T03:04:23.642Z,4.85
2022-12-23T03:06:55.202Z,4.82
2022-12-23T03:09:42.651Z,4.81
2022-12-23T03:12:49.446Z,4.83
2022-12-23T03:15:38.468Z,4.85
2022-12-23T03:18:29.065Z,4.90
2022-12-23T03:21:35.966Z,4.93
2022-12-23T03:24:20.982Z,4.97
2022-12-23T03:26:58.312Z,5.01
2022-12-23T03:30:05.387Z,5.06
2022-12-23T03:32:40.371Z,5.13
2022-12-23T03:35:12.615Z,5.18
2022-12-23T03:37:46.089Z,5.20
2022-12-23T03:40:29.460Z,5.19
2022-12-23T03:43:04.876Z,5.18
2022-12-23T03:45:46.489Z,5.15
2022-12-23T03:48:31.033Z,5.14
2022-12-23T03:51:03.875Z,5.14
2022-12-23T03:53:35.913Z,5.15
2022-12-23T03:56:10.774Z,5.20
2022-12-23T03:58:52.634Z,5.26
2022-12-23T04:01:26.843Z,5.31
2022-12-23T04:04:07.233Z,5.35
2022-12-23T04:06:51.405Z,5.36
2022-12-23T04:09:22.558Z,5.38
2022-12-23T04:11:51.284Z,5.38
2022-12-23T04:14:21.699Z,5.39
2022-12-23T04:16:55.987Z,5.39
2022-12-23T04:19:26.177Z,5.38
2022-12-23T04:21:57.509Z,5.38
2022-12-23T04:24:28.522Z,5.38
2022-12-23T04:26:56.369Z,5.39
2022-12-23T04:29:23.811Z,5.40
2022-12-23T04:31:54.094Z,5.43
2022-12-23T04:34:20.860Z,5.45
2022-12-23T04:36:50.573Z,5.45
2022-12-23T04:39:18.641Z,5.45
2022-12-23T04:41:45.887Z,5.43
2022-12-23T04:44:14.537Z,5.43
2022-12-23T04:46:43.023Z,5.43
2022-12-23T04:49:10.666Z,5.43
2022-12-23T04:51:39.566Z,5.43
2022-12-23T04:54:07.841Z,5.44
2022-12-23T04:56:39.899Z,5.45
2022-12-23T04:59:11.168Z,5.46
2022-12-23T05:01:39.156Z,5.48
2022-12-23T05:04:09.484Z,5.50
2022-12-23T05:06:37.700Z,5.53
2022-12-23T05:09:07.777Z,5.57
2022-12-23T05:11:42.152Z,5.61
2022-12-23T05:14:14.032Z,5.67
2022-12-23T05:16:44.875Z,5.70
2022-12-23T05:19:14.091Z,5.75
2022-12-23T05:21:41.851Z,5.79
2022-12-23T05:24:10.516Z,5.82
2022-12-23T05:26:40.905Z,5.86
2022-12-23T05:29:12.520Z,5.90
2022-12-23T05:31:40.861Z,5.94
2022-12-23T05:34:07.782Z,5.97
2022-12-23T05:36:36.893Z,6.02
2022-12-23T05:39:04.792Z,6.08
2022-12-23T05:41:34.166Z,6.12
2022-12-23T05:44:02.779Z,6.15
2022-12-23T05:46:31.748Z,6.18
2022-12-23T05:49:02.039Z,6.22
2022-12-23T05:51:30.166Z,6.25
2022-12-23T05:53:58.132Z,6.27
2022-12-23T05:56:26.578Z,6.28
2022-12-23T05:58:53.700Z,6.31
2022-12-23T06:01:23.707Z,6.34
2022-12-23T06:03:56.137Z,6.37
2022-12-23T06:06:25.131Z,6.41
2022-12-23T06:08:59.595Z,6.43
2022-12-23T06:11:29.540Z,6.45
2022-12-23T06:13:58.850Z,6.47
2022-12-23T06:16:26.941Z,6.49
2022-12-23T06:18:56.568Z,6.50
2022-12-23T06:21:27.585Z,6.51
2022-12-23T06:23:55.980Z,6.52
2022-12-23T06:26:25.398Z,6.52
2022-12-23T06:28:52.271Z,6.53
2022-12-23T06:31:21.923Z,6.52
2022-12-23T06:33:50.491Z,6.52
2022-12-23T06:36:21.047Z,6.51
2022-12-23T06:38:52.011Z,6.52
2022-12-23T06:41:20.592Z,6.52
2022-12-23T06:43:55.983Z,6.51
2022-12-23T06:46:23.674Z,6.53
2022-12-23T06:48:53.294Z,6.53
2022-12-23T06:51:22.049Z,6.53
2022-12-23T06:53:54.635Z,6.54
2022-12-23T06:56:22.732Z,6.54
2022-12-23T06:58:52.475Z,6.54
2022-12-23T07:01:21.611Z,6.54
2022-12-23T07:03:51.906Z,6.54
2022-12-23T07:06:20.657Z,6.56
2022-12-23T07:08:48.407Z,6.57
2022-12-23T07:11:15.893Z,6.58
2022-12-23T07:13:42.745Z,6.60
2022-12-23T07:16:12.151Z,6.59
2022-12-23T07:18:41.171Z,6.63
2022-12-23T07:21:17.712Z,6.65
2022-12-23T07:23:49.714Z,6.66
2022-12-23T07:26:19.464Z,6.68
2022-12-23T07:28:48.593Z,6.70
2022-12-23T07:31:17.640Z,6.70
2022-12-23T07:33:44.687Z,6.70
2022-12-23T07:36:13.686Z,6.70
2022-12-23T07:38:47.928Z,6.70
2022-12-23T07:41:17.536Z,6.71
2022-12-23T07:43:46.408Z,6.73
2022-12-23T07:46:17.017Z,6.74
2022-12-23T07:48:46.793Z,6.77
2022-12-23T07:51:15.650Z,6.79
2022-12-23T07:53:49.779Z,6.83
2022-12-23T07:56:19.463Z,6.88
2022-12-23T07:58:49.599Z,6.93
2022-12-23T08:01:20.221Z,6.97
2022-12-23T08:03:52.321Z,7.03
2022-12-23T08:06:19.900Z,7.07
2022-12-23T08:08:48.417Z,7.11
2022-12-23T08:11:17.633Z,7.11
2022-12-23T08:13:48.239Z,7.12
2022-12-23T08:16:16.699Z,7.11
2022-12-23T08:18:44.252Z,7.10
2022-12-23T08:21:16.537Z,7.11
2022-12-23T08:23:44.473Z,7.11
2022-12-23T08:26:18.177Z,7.12
2022-12-23T08:28:49.595Z,7.16
2022-12-23T08:31:25.296Z,7.20
2022-12-23T08:33:58.099Z,7.22
2022-12-23T08:36:55.458Z,7.25
2022-12-23T08:39:44.807Z,7.27
2022-12-23T08:42:19.552Z,7.30
2022-12-23T08:44:50.557Z,7.31
2022-12-23T08:47:18.404Z,7.34
2022-12-23T08:49:48.384Z,7.36
2022-12-23T08:52:23.416Z,7.39
2022-12-23T08:54:56.912Z,7.44
2022-12-23T08:57:27.587Z,7.52
2022-12-23T08:59:55.704Z,7.58
2022-12-23T09:02:25.692Z,7.63
2022-12-23T09:04:56.749Z,7.67
2022-12-23T09:07:24.731Z,7.74
2022-12-23T09:09:52.887Z,7.81
2022-12-23T09:12:27.616Z,7.87
2022-12-23T09:14:54.921Z,7.91
2022-12-23T09:17:22.693Z,7.99
2022-12-23T09:19:53.538Z,8.06
2022-12-23T09:22:22.644Z,8.10
2022-12-23T09:24:49.664Z,8.14
2022-12-23T09:27:18.340Z,8.18
2022-12-23T09:29:44.895Z,8.23
2022-12-23T09:32:14.516Z,8.28
2022-12-23T09:34:43.288Z,8.32
2022-12-23T09:37:16.394Z,8.35
2022-12-23T09:39:45.879Z,8.37
2022-12-23T09:42:57.807Z,8.38
2022-12-23T09:45:51.904Z,8.37
2022-12-23T09:48:32.561Z,8.39
2022-12-23T09:51:01.603Z,8.41
2022-12-23T09:53:59.804Z,8.43
2022-12-23T09:57:17.100Z,8.45
2022-12-23T10:00:03.185Z,8.48
2022-12-23T10:02:42.662Z,8.51
2022-12-23T10:05:41.631Z,8.54
2022-12-23T10:08:36.201Z,8.55
2022-12-23T10:11:18.242Z,8.57
2022-12-23T10:14:23.709Z,8.59
2022-12-23T10:17:10.694Z,8.64
2022-12-23T10:19:48.342Z,8.69
2022-12-23T10:22:41.036Z,8.73
2022-12-23T10:25:30.987Z,8.78
2022-12-23T10:27:59.053Z,8.81
2022-12-23T10:31:17.163Z,8.82
2022-12-23T10:33:43.569Z,8.82
2022-12-23T10:36:31.978Z,8.81
2022-12-23T10:39:29.462Z,8.82
2022-12-23T10:42:29.612Z,8.80
2022-12-23T10:45:09.833Z,8.80
2022-12-23T10:48:14.167Z,8.82
2022-12-23T10:50:55.984Z,8.88
2022-12-23T10:53:56.949Z,8.93
2022-12-23T10:56:28.754Z,8.99
2022-12-23T10:58:58.612Z,9.04
2022-12-23T11:01:30.710Z,9.09
2022-12-23T11:04:11.158Z,9.13
2022-12-23T11:07:10.785Z,9.17
2022-12-23T11:10:16.134Z,9.22
2022-12-23T11:12:49.565Z,9.23
2022-12-23T11:15:29.669Z,9.23
2022-12-23T11:17:58.533Z,9.22
2022-12-23T11:20:25.301Z,9.23
2022-12-23T11:23:01.767Z,9.23
2022-12-23T11:25:33.800Z,9.24
2022-12-23T11:28:11.639Z,9.24
2022-12-23T11:30:55.918Z,9.24
2022-12-23T11:33:51.918Z,9.24
2022-12-23T11:36:34.330Z,9.25
2022-12-23T11:39:04.078Z,9.26
2022-12-23T11:41:35.611Z,9.27
2022-12-23T11:44:50.816Z,9.29
2022-12-23T11:47:32.283Z,9.31
2022-12-23T11:50:03.223Z,9.33
2022-12-23T11:52:33.118Z,9.38
2022-12-23T11:55:02.538Z,9.43
2022-12-23T11:57:42.436Z,9.46
2022-12-23T12:00:19.823Z,9.48
2022-12-23T12:02:55.567Z,9.49
2022-12-23T12:05:40.598Z,9.48
2022-12-23T12:08:15.651Z,9.51
2022-12-23T12:10:54.342Z,9.53
2022-12-23T12:13:28.002Z,9.54
2022-12-23T12:16:31.604Z,9.56
2022-12-23T12:19:06.048Z,9.59
2022-12-23T12:21:38.492Z,9.59
2022-12-23T12:24:19.590Z,9.59
2022-12-23T12:26:50.713Z,9.58
2022-12-23T12:29:48.100Z,9.59
2022-12-23T12:32:24.855Z,9.61
2022-12-23T12:34:59.535Z,9.63
2022-12-23T12:37:47.904Z,9.64
2022-12-23T12:40:15.476Z,9.66
2022-12-23T12:42:48.366Z,9.67
2022-12-23T12:45:21.649Z,9.69
2022-12-23T12:48:26.393Z,9.72
2022-12-23T12:51:39.508Z,9.75
2022-12-23T12:54:19.642Z,9.76
2022-12-23T12:56:56.896Z,9.76
2022-12-23T12:59:35.848Z,9.76
2022-12-23T13:02:42.752Z,9.75
2022-12-23T13:05:29.056Z,9.73
2022-12-23T13:08:13.803Z,9.72
2022-12-23T13:11:10.481Z,9.71
2022-12-23T13:13:43.523Z,9.69
2022-12-23T13:16:24.370Z,9.68
2022-12-23T13:19:00.582Z,9.66
2022-12-23T13:21:49.816Z,9.65
2022-12-23T13:24:43.170Z,9.63
2022-12-23T13:27:37.108Z,9.61
2022-12-23T13:30:12.792Z,9.59
2022-12-23T13:33:11.490Z,9.56
2022-12-23T13:35:42.819Z,9.54
2022-12-23T13:38:43.139Z,9.52
2022-12-23T13:41:19.416Z,9.50
2022-12-23T13:43:54.496Z,9.50
2022-12-23T13:46:43.748Z,9.49
2022-12-23T13:49:29.902Z,9.50
2022-12-23T13:52:13.009Z,9.51
2022-12-23T13:54:55.513Z,9.52
2022-12-23T13:57:50.118Z,9.51
2022-12-23T14:00:16.769Z,9.50
2022-12-23T14:02:51.047Z,9.50
2022-12-23T14:05:41.210Z,9.51
2022-12-23T14:08:24.644Z,9.51
2022-12-23T14:11:20.863Z,9.50
2022-12-23T14:13:50.617Z,9.50
2022-12-23T14:16:55.132Z,9.49
2022-12-23T14:19:31.783Z,9.46
2022-12-23T14:22:13.366Z,9.42
2022-12-23T14:25:04.656Z,9.38
2022-12-23T14:27:47.836Z,9.36
2022-12-23T14:30:37.821Z,9.33
2022-12-23T14:33:14.435Z,9.32
2022-12-23T14:35:43.100Z,9.32
2022-12-23T14:38:22.924Z,9.31
2022-12-23T14:40:56.673Z,9.30
2022-12-23T14:43:27.078Z,9.29
2022-12-23T14:46:05.960Z,9.28
2022-12-23T14:48:33.151Z,9.26
2022-12-23T14:51:03.443Z,9.24
2022-12-23T14:53:32.925Z,9.23
2022-12-23T14:56:09.236Z,9.23
2022-12-23T14:58:53.741Z,9.22
2022-12-23T15:01:28.327Z,9.19
2022-12-23T15:04:01.359Z,9.20
2022-12-23T15:06:35.762Z,9.20
2022-12-23T15:09:04.085Z,9.19
2022-12-23T15:11:33.251Z,9.19
2022-12-23T15:14:06.432Z,9.18
2022-12-23T15:16:36.323Z,9.19
2022-12-23T15:19:18.020Z,9.18
2022-12-23T15:21:48.282Z,9.20
2022-12-23T15:24:22.177Z,9.21
2022-12-23T15:27:03.586Z,9.23
2022-12-23T15:29:43.135Z,9.27
2022-12-23T15:32:11.021Z,9.31
2022-12-23T15:34:37.418Z,9.32
2022-12-23T15:37:11.404Z,9.34
2022-12-23T15:39:41.198Z,9.36
2022-12-23T15:42:23.205Z,9.36
2022-12-23T15:44:52.412Z,9.34
2022-12-23T15:47:37.944Z,9.33
2022-12-23T15:50:14.596Z,9.31
2022-12-23T15:52:44.583Z,9.33
2022-12-23T15:55:19.270Z,9.35
2022-12-23T15:57:50.402Z,9.36
2022-12-23T16:00:39.440Z,9.36
2022-12-23T16:03:23.498Z,9.37
2022-12-23T16:05:50.325Z,9.38
2022-12-23T16:08:29.825Z,9.38
2022-12-23T16:11:36.657Z,9.38
2022-12-23T16:14:33.769Z,9.37
2022-12-23T16:17:07.230Z,9.37
2022-12-23T16:19:48.344Z,9.36
2022-12-23T16:22:28.974Z,9.36
2022-12-23T16:24:55.714Z,9.36
2022-12-23T16:27:34.153Z,9.35
2022-12-23T16:30:08.242Z,9.35
2022-12-23T16:32:47.571Z,9.35
2022-12-23T16:35:32.804Z,9.33
2022-12-23T16:38:11.625Z,9.33
2022-12-23T16:40:38.194Z,9.30
2022-12-23T16:43:05.033Z,9.29
2022-12-23T16:45:32.986Z,9.27
2022-12-23T16:48:00.708Z,9.24
2022-12-23T16:50:27.415Z,9.22
2022-12-23T16:52:54.132Z,9.19
2022-12-23T16:55:23.122Z,9.16
2022-12-23T16:57:49.879Z,9.16
2022-12-23T17:00:19.344Z,9.18
2022-12-23T17:02:47.702Z,9.21
2022-12-23T17:05:37.181Z,9.20
2022-12-23T17:08:03.941Z,9.16
2022-12-23T17:10:31.632Z,9.14
2022-12-23T17:12:58.337Z,9.13
2022-12-23T17:15:26.256Z,9.13
2022-12-23T17:17:53.714Z,9.14
2022-12-23T17:20:21.892Z,9.16
2022-12-23T17:22:51.924Z,9.17
2022-12-23T17:25:24.562Z,9.15
2022-12-23T17:27:55.040Z,9.15
2022-12-23T17:30:24.823Z,9.14
2022-12-23T17:32:53.762Z,9.13
2022-12-23T17:35:21.749Z,9.12
2022-12-23T17:37:48.705Z,9.11
2022-12-23T17:40:15.976Z,9.11
2022-12-23T17:42:43.070Z,9.09
2022-12-23T17:45:27.394Z,9.07
2022-12-23T17:47:55.183Z,9.07
2022-12-23T17:50:24.273Z,9.09
2022-12-23T17:52:51.876Z,9.08
2022-12-23T17:55:23.948Z,9.07
2022-12-23T17:57:52.145Z,9.05
2022-12-23T18:00:28.098Z,9.04
2022-12-23T18:03:02.806Z,9.04
2022-12-23T18:05:32.114Z,9.05
2022-12-23T18:07:59.316Z,9.07
2022-12-23T18:10:30.341Z,9.04
2022-12-23T18:13:02.662Z,9.02
2022-12-23T18:15:35.777Z,9.00
2022-12-23T18:18:13.925Z,8.97
2022-12-23T18:20:44.404Z,8.93
2022-12-23T18:23:19.479Z,8.91
2022-12-23T18:25:46.357Z,8.89
2022-12-23T18:28:12.856Z,8.86
2022-12-23T18:30:40.547Z,8.84
2022-12-23T18:33:12.493Z,8.84
2022-12-23T18:35:43.311Z,8.84
2022-12-23T18:38:11.737Z,8.83
2022-12-23T18:40:39.557Z,8.81
2022-12-23T18:43:06.477Z,8.79
2022-12-23T18:45:37.350Z,8.78
2022-12-23T18:48:06.783Z,8.75
2022-12-23T18:50:34.365Z,8.73
2022-12-23T18:53:01.441Z,8.71
2022-12-23T18:55:32.023Z,8.69
2022-12-23T18:57:59.899Z,8.69
2022-12-23T19:00:28.942Z,8.69
2022-12-23T19:02:56.261Z,8.69
2022-12-23T19:05:29.081Z,8.71
2022-12-23T19:07:57.727Z,8.76
2022-12-23T19:10:32.022Z,8.78
2022-12-23T19:12:59.899Z,8.81
2022-12-23T19:15:27.147Z,8.84
2022-12-23T19:17:54.859Z,8.84
2022-12-23T19:20:23.486Z,8.83
2022-12-23T19:22:50.108Z,8.84
2022-12-23T19:25:18.213Z,8.83
2022-12-23T19:27:45.661Z,8.78
2022-12-23T19:30:15.725Z,8.76
2022-12-23T19:32:44.314Z,8.74
2022-12-23T19:35:15.466Z,8.73
2022-12-23T19:37:42.311Z,8.70
2022-12-23T19:40:09.966Z,8.69
2022-12-23T19:42:39.337Z,8.66
2022-12-23T19:45:12.931Z,8.63
2022-12-23T19:47:39.944Z,8.58
2022-12-23T19:50:07.268Z,8.54
2022-12-23T19:52:37.291Z,8.49
2022-12-23T19:55:04.628Z,8.47
2022-12-23T19:57:31.166Z,8.45
2022-12-23T19:59:58.492Z,8.42
2022-12-23T20:02:25.528Z,8.37
2022-12-23T20:04:52.220Z,8.37
2022-12-23T20:07:19.570Z,8.37
2022-12-23T20:09:46.377Z,8.38
2022-12-23T20:12:13.080Z,8.38
2022-12-23T20:14:40.311Z,8.36
2022-12-23T20:17:06.862Z,8.34
2022-12-23T20:19:34.295Z,8.34
2022-12-23T20:22:00.810Z,8.33
2022-12-23T20:24:27.701Z,8.32
2022-12-23T20:26:54.292Z,8.31
2022-12-23T20:29:20.932Z,8.30
2022-12-23T20:31:47.626Z,8.31
2022-12-23T20:34:17.511Z,8.29
2022-12-23T20:36:44.378Z,8.28
2022-12-23T20:39:13.825Z,8.28
2022-12-23T20:41:40.347Z,8.27
2022-12-23T20:44:33.950Z,8.27
2022-12-23T20:46:54.332Z,8.24
2022-12-23T20:49:21.991Z,8.19
2022-12-23T20:51:48.523Z,8.15
2022-12-23T20:54:17.936Z,8.12
2022-12-23T20:56:44.725Z,8.07
2022-12-23T20:59:11.107Z,8.06
2022-12-23T21:01:39.647Z,8.06
2022-12-23T21:04:12.293Z,8.03
2022-12-23T21:06:39.613Z,8.01
2022-12-23T21:09:08.387Z,8.01
2022-12-23T21:11:39.369Z,8.02
2022-12-23T21:14:07.624Z,8.04
2022-12-23T21:16:36.812Z,8.06
2022-12-23T21:19:05.582Z,8.08
2022-12-23T21:21:33.036Z,8.09
2022-12-23T21:24:03.505Z,8.11
2022-12-23T21:26:31.442Z,8.12
2022-12-23T21:29:00.883Z,8.12
2022-12-23T21:31:29.405Z,8.11
2022-12-23T21:33:57.260Z,8.11
2022-12-23T21:36:30.333Z,8.10
2022-12-23T21:38:57.449Z,8.11
2022-12-23T21:41:27.041Z,8.11
2022-12-23T21:43:59.199Z,8.10
2022-12-23T21:46:27.301Z,8.07
2022-12-23T21:48:55.615Z,8.04
2022-12-23T21:51:25.087Z,8.02
2022-12-23T21:53:53.438Z,8.03
2022-12-23T21:56:23.626Z,8.01
2022-12-23T21:59:01.984Z,8.02
2022-12-23T22:01:29.347Z,7.99
2022-12-23T22:03:57.355Z,7.96
2022-12-23T22:06:27.420Z,7.95
2022-12-23T22:08:55.351Z,7.91
2022-12-23T22:11:25.429Z,7.90
2022-12-23T22:13:54.349Z,7.89
2022-12-23T22:16:24.237Z,7.87
2022-12-23T22:18:52.468Z,7.83
2022-12-23T22:21:23.590Z,7.80
2022-12-23T22:23:51.604Z,7.79
2022-12-23T22:26:25.133Z,7.78
2022-12-23T22:28:57.542Z,7.77
2022-12-23T22:31:28.664Z,7.77
2022-12-23T22:33:55.466Z,7.77
2022-12-23T22:36:22.556Z,7.78
2022-12-23T22:38:55.190Z,7.78
2022-12-23T22:41:23.144Z,7.79
2022-12-23T22:43:49.829Z,7.80
2022-12-23T22:46:16.469Z,7.79
2022-12-23T22:48:43.364Z,7.79
2022-12-23T22:51:14.839Z,7.80
2022-12-23T22:53:41.423Z,7.79
2022-12-23T22:56:14.192Z,7.78
2022-12-23T22:58:41.446Z,7.77
2022-12-23T23:01:20.662Z,7.74
2022-12-23T23:03:50.619Z,7.74
2022-12-23T23:06:18.168Z,7.75
2022-12-23T23:08:44.526Z,7.75
2022-12-23T23:11:11.325Z,7.74
2022-12-23T23:13:37.678Z,7.75
2022-12-23T23:16:06.898Z,7.75
2022-12-23T23:18:38.880Z,7.74
2022-12-23T23:21:07.995Z,7.74
2022-12-23T23:23:35.817Z,7.73
2022-12-23T23:26:02.407Z,7.71
2022-12-23T23:28:28.875Z,7.70
2022-12-23T23:31:16.807Z,7.68
2022-12-23T23:33:42.101Z,7.67
2022-12-23T23:36:09.214Z,7.67
2022-12-23T23:38:36.276Z,7.68
2022-12-23T23:41:03.017Z,7.68
2022-12-23T23:43:29.461Z,7.67
2022-12-23T23:45:58.291Z,7.67
2022-12-23T23:48:24.785Z,7.68
2022-12-23T23:50:52.637Z,7.68
2022-12-23T23:53:19.429Z,7.67
2022-12-23T23:55:46.321Z,7.67
2022-12-23T23:58:12.739Z,7.67
